Bartlett, Texas
Current Conditions -  °F | °C
As of 12:23 PM on Thursday 18 Dec 2014 (Local Time) from KGRK Reporting Station
Haze Haze  
Wind Chill: 55°   Ceiling: 600
Heat Index: 55°   Visibility: 4mi
Dew Point: 54°   Wind: 6mph
Humidity: 94%   Direction: 310°NW
Pressure: 30.11"   Gusts: NA
Location:  30.79°N, 97.43°W
Report Text: KGRK 181823Z AUTO 31005KT 4SM BR OVC006 13/12 A3011 RMK AO2
Loading
Personal Weather Stations






























Interactive Weather Map New forecast layout! Learn more

10-Day Weather Forecast

Advertisements
Track Severe Weather on mobile